1859 Hurricane NOT_NAMED (1859249N11324)


IBTrACS version v04r00. Visit IBTrACS website for data access.
Please direct all questions to the IBTrACS Q and A forum

Storm track - Intensity - Wind Radii - Intensity Data - Source Data - All data

Summary Information

Storm ID 1859249N11324
Start Sep 5 12Z
Max Intensity 90 kt (Sep 9 00Z), 972 mb (Sep 12 18Z)
End Sep 14 00Z
ATCF IDs ,AL041859
Track status Best track data.

Storm track plot

Map of storm track

Intensity plots

Map of storm track

Radial wind information

No radial wind information for this storm


Position and Intensity Table

BASIN ISO_TIME_________ NATURE LAT LON WMO WIND USA WIND MLC WIND MLC PRES
degrees north degrees east kts kts kts mb
NA 1859-09-05 12:00:00 TS 11.40 -36.00 35
NA 15:00:00 TS 12.00 -36.91 35
NA 18:00:00 TS 12.60 -37.80 35
NA 21:00:00 TS 13.20 -38.65 37
NA 1859-09-06 00:00:00 TS 13.80 -39.50 40
NA 03:00:00 TS 14.40 -40.40 40
NA 06:00:00 TS 15.00 -41.30 40
NA 09:00:00 TS 15.60 -42.15 42
NA 12:00:00 TS 16.20 -43.00 45
NA 15:00:00 TS 16.80 -43.90 45
NA 18:00:00 TS 17.40 -44.80 45
NA 21:00:00 TS 18.00 -45.65 47
NA 1859-09-07 00:00:00 TS 18.60 -46.50 50
NA 03:00:00 TS 19.20 -47.40 52
NA 06:00:00 TS 19.80 -48.30 55
NA 09:00:00 TS 20.44 -49.15 57
NA 12:00:00 TS 21.00 -50.00 60
NA 15:00:00 TS 21.32 -50.90 60
NA 18:00:00 TS 21.70 -51.80 60
NA 21:00:00 TS 22.47 -52.65 65
NA 1859-09-08 00:00:00 TS 23.30 -53.50 70
NA 03:00:00 TS 23.89 -54.40 72
NA 06:00:00 TS 24.40 -55.30 75
NA 09:00:00 TS 24.97 -56.27 77
NA 12:00:00 TS 25.50 -57.00 80
NA 15:00:00 TS 25.96 -57.21 82
NA 18:00:00 TS 26.40 -57.20 85
NA 21:00:00 TS 26.90 -57.30 87
NA 1859-09-09 00:00:00 TS 27.40 -57.40 90
NA 03:00:00 TS 27.86 -57.50 90
NA 06:00:00 TS 28.30 -57.60 90
NA 09:00:00 TS 28.74 -57.71 90
NA 12:00:00 TS 29.20 -57.80 90
NA 15:00:00 TS 29.70 -57.82 90
NA 18:00:00 TS 30.20 -57.80 90
NA 21:00:00 TS 30.65 -57.80 90
NA 1859-09-10 00:00:00 TS 31.10 -57.80 90
NA 03:00:00 TS 31.60 -57.80 90
NA 06:00:00 TS 32.10 -57.80 90
NA 09:00:00 TS 32.59 -57.80 90
NA 12:00:00 TS 33.00 -57.80 90
NA 15:00:00 TS 33.28 -57.80 90
NA 18:00:00 TS 33.50 -57.80 90
NA 21:00:00 TS 33.75 -57.81 87
NA 1859-09-11 00:00:00 TS 34.00 -57.80 85
NA 03:00:00 TS 34.25 -57.76 85
NA 06:00:00 TS 34.50 -57.70 85
NA 09:00:00 TS 34.74 -57.66 85
NA 12:00:00 TS 35.00 -57.60 85
NA 15:00:00 TS 35.31 -57.51 85
NA 18:00:00 TS 35.60 -57.40 85
NA 21:00:00 TS 35.81 -57.36 85
NA 1859-09-12 00:00:00 TS 36.00 -57.20 85
NA 03:00:00 TS 36.24 -56.76 85
NA 06:00:00 TS 36.17 -56.63 90 90 85
NA 09:00:00 TS 36.43 -55.88 90 85
NA 12:00:00 TS 37.00 -54.78 90 90 85
NA 15:00:00 TS 37.90 -53.51 90 85
NA 18:00:00 TS 38.97 -52.33 90 90 85 972
NA 21:00:00 TS 40.14 -51.28 85 82
NA 1859-09-13 00:00:00 TS 41.27 -50.27 80 80 80
NA 03:00:00 TS 42.08 -49.24 80 77
NA 06:00:00 TS 42.90 -48.17 80 80 75
NA 09:00:00 TS 43.89 -47.02 75 72
NA 12:00:00 TS 45.14 -45.58 70 70 70
NA 15:00:00 TS 46.88 -43.77 70 67
NA 18:00:00 TS 48.94 -41.76 70 70 65
NA 21:00:00 TS 51.03 -38.81 62
NA 1859-09-14 00:00:00 ET 53.00 -37.00 60

Source Information

Agency Information
USA hurdat2-1851-2018-051019.txt:Line=780:UNNAMED
TOKYO
CMA
HKO
NEWDELHI
REUNION
BOM
NADI
WELLINGTON
DS824
TD9636
TD9635
NEUMANN
MLC

All available IBTrACS Data

SEASON BASIN SUBBASIN ISO_TIME_________ NATURE LAT LON WMO WIND WMO AGENCY DIST2LAND LANDFALL IFLAG USA AGENCY USA ATCF_ID USA LAT USA LON USA STATUS USA WIND USA SSHS MLC LAT MLC LON MLC CLASS MLC WIND MLC PRES STORM SPEED STORM DIR
Year degrees north degrees east kts km km degrees north degrees east kts 1 degrees north degrees east kts mb kts degrees
1859 NA NA 1859-09-05 12:00:00 TS 11.40 -36.00 1656 1653 _____________O -1 11.40 -36.00 TS 35 22 304
1859 NA NA 15:00:00 TS 12.00 -36.91 1699 1697 _____________P -1 12.00 -36.91 TS 35 21 304
1859 NA NA 18:00:00 TS 12.60 -37.80 1750 1708 _____________O -1 12.60 -37.80 TS 35 21 305
1859 NA NA 21:00:00 TS 13.20 -38.65 1706 1676 _____________P -1 13.20 -38.65 TS 37 21 306
1859 NA NA 1859-09-06 00:00:00 TS 13.80 -39.50 1676 1646 _____________O -1 13.80 -39.50 TS 40 21 305
1859 NA NA 03:00:00 TS 14.40 -40.40 1645 1622 _____________P -1 14.40 -40.40 TS 40 21 305
1859 NA NA 06:00:00 TS 15.00 -41.30 1623 1608 _____________O -1 15.00 -41.30 TS 40 21 305
1859 NA NA 09:00:00 TS 15.60 -42.15 1610 1606 _____________P -1 15.60 -42.15 TS 42 20 306
1859 NA NA 12:00:00 TS 16.20 -43.00 1612 1606 _____________O -1 16.20 -43.00 TS 45 21 306
1859 NA NA 15:00:00 TS 16.80 -43.90 1608 1601 _____________P -1 16.80 -43.90 TS 45 21 305
1859 NA NA 18:00:00 TS 17.40 -44.80 1608 1606 _____________O -1 17.40 -44.80 TS 45 21 306
1859 NA NA 21:00:00 TS 18.00 -45.65 1617 1617 _____________P -1 18.00 -45.65 TS 47 20 307
1859 NA NA 1859-09-07 00:00:00 TS 18.60 -46.50 1638 1638 _____________O -1 18.60 -46.50 TS 50 21 306
1859 NA NA 03:00:00 TS 19.20 -47.40 1661 1656 _____________P -1 19.20 -47.40 TS 52 21 305
1859 NA NA 06:00:00 TS 19.80 -48.30 1682 1673 _____________O -1 19.80 -48.30 TS 55 21 307
1859 NA NA 09:00:00 TS 20.44 -49.15 1665 1646 _____________P -1 20.44 -49.15 TS 57 20 307
1859 NA NA 12:00:00 TS 21.00 -50.00 1646 1570 _____________O -1 21.00 -50.00 TS 60 19 298
1859 NA NA 15:00:00 TS 21.32 -50.90 1570 1487 _____________P -1 21.32 -50.90 TS 60 18 293
1859 NA NA 18:00:00 TS 21.70 -51.80 1487 1425 _____________O -1 21.70 -51.80 TS 60 20 305
1859 NA NA 21:00:00 TS 22.47 -52.65 1429 1370 _____________P -1 22.47 -52.65 TS 65 22 316
1859 NA NA 1859-09-08 00:00:00 TS 23.30 -53.50 1370 1313 _____________O -1 23.30 -53.50 HU 70 22 311
1859 NA NA 03:00:00 TS 23.89 -54.40 1313 1262 _____________P -1 23.89 -54.40 HU 72 20 304
1859 NA NA 06:00:00 TS 24.40 -55.30 1258 1212 _____________O -1 24.40 -55.30 HU 75 20 302
1859 NA NA 09:00:00 TS 24.97 -56.27 1210 1189 _____________P -1 24.97 -56.27 HU 77 19 306
1859 NA NA 12:00:00 TS 25.50 -57.00 1189 1188 _____________O -1 25.50 -57.00 HU 80 13 319
1859 NA NA 15:00:00 TS 25.96 -57.21 1211 1211 _____________P -1 25.96 -57.21 HU 82 9 349
1859 NA NA 18:00:00 TS 26.40 -57.20 1242 1242 _____________O -1 26.40 -57.20 HU 85 10 355
1859 NA NA 21:00:00 TS 26.90 -57.30 1274 1274 _____________P -1 26.90 -57.30 HU 87 10 350
1859 NA NA 1859-09-09 00:00:00 TS 27.40 -57.40 1309 1309 _____________O -1 27.40 -57.40 HU 90 10 349
1859 NA NA 03:00:00 TS 27.86 -57.50 1345 1345 _____________P -1 27.86 -57.50 HU 90 9 349
1859 NA NA 06:00:00 TS 28.30 -57.60 1374 1374 _____________O -1 28.30 -57.60 HU 90 9 348
1859 NA NA 09:00:00 TS 28.74 -57.71 1403 1403 _____________P -1 28.74 -57.71 HU 90 9 349
1859 NA NA 12:00:00 TS 29.20 -57.80 1443 1443 _____________O -1 29.20 -57.80 HU 90 10 355
1859 NA NA 15:00:00 TS 29.70 -57.82 1489 1489 _____________P -1 29.70 -57.82 HU 90 10 1
1859 NA NA 18:00:00 TS 30.20 -57.80 1535 1535 _____________O -1 30.20 -57.80 HU 90 10 2
1859 NA NA 21:00:00 TS 30.65 -57.80 1570 1529 _____________P -1 30.65 -57.80 HU 90 9 0
1859 NA NA 1859-09-10 00:00:00 TS 31.10 -57.80 1529 1478 _____________O -1 31.10 -57.80 HU 90 10 2
1859 NA NA 03:00:00 TS 31.60 -57.80 1478 1428 _____________P -1 31.60 -57.80 HU 90 10 1
1859 NA NA 06:00:00 TS 32.10 -57.80 1428 1377 _____________O -1 32.10 -57.80 HU 90 10 359
1859 NA NA 09:00:00 TS 32.59 -57.80 1377 1337 _____________P -1 32.59 -57.80 HU 90 9 0
1859 NA NA 12:00:00 TS 33.00 -57.80 1337 1308 _____________O -1 33.00 -57.80 HU 90 7 0
1859 NA NA 15:00:00 TS 33.28 -57.80 1308 1288 _____________P -1 33.28 -57.80 HU 90 5 2
1859 NA NA 18:00:00 TS 33.50 -57.80 1288 1268 _____________O -1 33.50 -57.80 HU 90 5 0
1859 NA NA 21:00:00 TS 33.75 -57.81 1258 1239 _____________P -1 33.75 -57.81 HU 87 5 2
1859 NA NA 1859-09-11 00:00:00 TS 34.00 -57.80 1239 1219 _____________O -1 34.00 -57.80 HU 85 5 5
1859 NA NA 03:00:00 TS 34.25 -57.76 1210 1195 _____________P -1 34.25 -57.76 HU 85 5 9
1859 NA NA 06:00:00 TS 34.50 -57.70 1195 1176 _____________O -1 34.50 -57.70 HU 85 5 9
1859 NA NA 09:00:00 TS 34.74 -57.66 1176 1153 _____________P -1 34.74 -57.66 HU 85 5 9
1859 NA NA 12:00:00 TS 35.00 -57.60 1153 1130 _____________O -1 35.00 -57.60 HU 85 6 13
1859 NA NA 15:00:00 TS 35.31 -57.51 1130 1107 _____________P -1 35.31 -57.51 HU 85 6 15
1859 NA NA 18:00:00 TS 35.60 -57.40 1107 1089 _____________O -1 35.60 -57.40 HU 85 5 13
1859 NA NA 21:00:00 TS 35.81 -57.36 1089 1072 _____________P -1 35.81 -57.36 HU 85 4 22
1859 NA NA 1859-09-12 00:00:00 TS 36.00 -57.20 1074 1058 _____________O -1 36.00 -57.20 HU 85 7 48
1859 NA NA 03:00:00 TS 36.24 -56.76 1064 1064 _____________P -1 36.24 -56.76 HU 85 5 70
1859 NA NA 06:00:00 TS 36.17 -56.63 90 hurdat_atl 1069 1067 O____________O hurdat_atl AL041859 35.50 -57.50 HU 90 2 36.50 -56.20 HU 85 7 75
1859 NA NA 09:00:00 TS 36.43 -55.88 1071 1052 P____________P AL041859 36.22 -55.97 HU 90 2 36.64 -55.78 HU 85 17 61
1859 NA NA 12:00:00 TS 37.00 -54.78 90 hurdat_atl 1052 978 O____________O hurdat_atl AL041859 37.00 -54.50 HU 90 2 37.00 -55.20 HU 85 24 52
1859 NA NA 15:00:00 TS 37.90 -53.51 967 858 P____________P AL041859 37.92 -53.17 HU 90 2 37.85 -54.19 HU 85 28 44
1859 NA NA 18:00:00 TS 38.97 -52.33 90 hurdat_atl 848 738 O____________O hurdat_atl AL041859 39.00 -52.00 HU 90 2 38.90 -53.00 HU 85 972 28 38
1859 NA NA 21:00:00 TS 40.14 -51.28 738 640 P____________P AL041859 40.29 -50.93 HU 85 2 39.85 -51.98 HU 82 28 34
1859 NA NA 1859-09-13 00:00:00 TS 41.27 -50.27 80 hurdat_atl 632 593 O____________O hurdat_atl AL041859 41.50 -50.00 HU 80 1 40.80 -50.80 HU 80 25 38
1859 NA NA 03:00:00 TS 42.08 -49.24 591 568 P____________P AL041859 42.25 -49.24 HU 80 1 41.75 -49.23 HU 77 23 44
1859 NA NA 06:00:00 TS 42.90 -48.17 80 hurdat_atl 568 561 O____________O hurdat_atl AL041859 43.00 -48.50 HU 80 1 42.70 -47.50 HU 75 24 42
1859 NA NA 09:00:00 TS 43.89 -47.02 567 567 P____________P AL041859 44.10 -47.60 HU 75 1 43.47 -45.85 HU 72 29 40
1859 NA NA 12:00:00 TS 45.14 -45.58 70 hurdat_atl 597 597 O____________O hurdat_atl AL041859 45.50 -46.50 HU 70 1 44.60 -44.20 HU 70 38 37
1859 NA NA 15:00:00 TS 46.88 -43.77 664 664 P____________P AL041859 47.18 -45.12 HU 70 1 46.58 -42.43 HU 67 46 34
1859 NA NA 18:00:00 TS 48.94 -41.76 70 hurdat_atl 810 810 O____________O hurdat_atl AL041859 49.00 -43.50 HU 70 1 48.90 -40.60 HU 65 53 38
1859 NA NA 21:00:00 TS 51.03 -38.81 1042 876 _____________P AL041859 HU -1 51.03 -38.81 HU 62 50 36
1859 NA NA 1859-09-14 00:00:00 ET 53.00 -37.00 868 _____________O -1 53.00 -37.00 EX 60 45 29